Time;durP1;ratioP1;P1;durP2;ratioP2;P2;SDS_P1;SDS_P2;PMS_P1;PMS_P2;Temp;Humidity;BMP_temperature;BMP_pressure;BME280_temperature;BME280_humidity;BME280_pressure;Samples;Min_cycle;Max_cycle;Signal;HPM_P1;HPM_P2
2022/08/06 07:28:06;;;;;;;1.40;0.80;;;19.00;75.50;;;;;;10563302;28;20057;-72
2022/08/06 08:08:11;;;;;;;0.88;0.40;;;19.00;75.40;;;;;;10331955;27;20363;-62
2022/08/06 08:13:13;;;;;;;1.77;0.50;;;18.80;76.30;;;;;;10332758;28;20858;-63
2022/08/06 08:18:14;;;;;;;0.77;0.43;;;18.80;76.50;;;;;;10326016;27;20419;-62
2022/08/06 08:23:16;;;;;;;2.67;0.60;;;18.80;76.90;;;;;;10332210;28;20061;-61
2022/08/06 08:28:17;;;;;;;1.42;0.40;;;18.70;76.90;;;;;;10331426;28;20563;-63
2022/08/06 08:33:19;;;;;;;0.98;0.45;;;18.60;77.00;;;;;;10325814;28;20081;-64
2022/08/06 08:38:20;;;;;;;1.50;0.93;;;18.70;76.90;;;;;;10329951;27;20321;-63
2022/08/06 08:43:29;;;;;;;0.93;0.60;;;18.70;76.90;;;;;;10332098;27;20052;-63
2022/08/06 08:48:31;;;;;;;1.60;0.60;;;18.80;77.40;;;;;;10316882;27;20482;-62
2022/08/06 08:53:41;;;;;;;3.22;0.80;;;18.80;77.00;;;;;;10317143;27;20580;-63
2022/08/06 08:58:43;;;;;;;3.83;1.35;;;18.90;77.00;;;;;;10311134;27;20042;-62
2022/08/06 09:03:44;;;;;;;2.22;0.82;;;18.90;76.70;;;;;;10309522;28;20436;-65
2022/08/06 09:08:46;;;;;;;1.23;0.70;;;19.00;76.10;;;;;;10313705;27;20032;-64
2022/08/06 09:13:47;;;;;;;2.00;0.70;;;19.10;76.10;;;;;;10302635;28;20572;-62
2022/08/06 09:18:48;;;;;;;1.80;0.80;;;19.20;75.90;;;;;;10288627;28;20037;-63
2022/08/06 09:23:49;;;;;;;2.88;0.70;;;18.90;75.70;;;;;;10291390;28;20033;-63
2022/08/06 09:28:50;;;;;;;3.67;1.13;;;18.90;75.30;;;;;;10286278;28;20426;-62
2022/08/06 09:33:58;;;;;;;3.22;1.10;;;19.00;75.10;;;;;;10290860;28;20522;-62
2022/08/06 09:38:59;;;;;;;3.47;1.25;;;19.30;74.90;;;;;;10299553;28;20356;-62
2022/08/06 09:44:10;;;;;;;2.47;1.17;;;19.50;73.90;;;;;;10288742;28;20485;-64
2022/08/06 09:49:12;;;;;;;3.95;1.95;;;19.60;73.30;;;;;;10291823;28;20612;-63
2022/08/06 09:54:15;;;;;;;2.35;0.98;;;19.70;73.00;;;;;;10302371;28;20030;-63
2022/08/06 09:59:16;;;;;;;3.65;1.25;;;19.60;73.20;;;;;;10300628;28;20053;-64
2022/08/06 10:04:26;;;;;;;2.08;1.02;;;19.40;73.50;;;;;;10301004;28;20610;-64
2022/08/06 10:09:27;;;;;;;2.17;0.98;;;19.20;74.10;;;;;;10299165;28;20025;-63
2022/08/06 10:14:29;;;;;;;1.65;0.85;;;19.20;74.50;;;;;;10291727;28;20114;-64
2022/08/06 10:19:30;;;;;;;1.30;0.95;;;19.20;74.70;;;;;;10280182;28;20070;-63
2022/08/06 10:24:33;;;;;;;1.90;1.00;;;19.30;74.60;;;;;;10274671;28;20018;-64
2022/08/06 10:29:39;;;;;;;4.22;1.30;;;19.40;74.50;;;;;;10291591;28;20455;-64
2022/08/06 10:34:40;;;;;;;1.70;1.15;;;19.50;74.60;;;;;;10342990;27;20025;-63
2022/08/06 10:39:46;;;;;;;3.15;1.10;;;19.60;74.50;;;;;;10306077;28;20593;-63
2022/08/06 10:44:51;;;;;;;2.38;1.60;;;19.70;74.00;;;;;;10280804;28;20299;-65
2022/08/06 10:49:53;;;;;;;1.77;1.30;;;19.80;72.20;;;;;;10297514;28;20491;-63
2022/08/06 10:54:56;;;;;;;2.22;1.38;;;19.90;70.80;;;;;;10300855;27;20044;-64
2022/08/06 10:59:58;;;;;;;1.55;1.40;;;20.00;70.60;;;;;;10296616;28;20795;-66
2022/08/06 11:05:04;;;;;;;3.17;1.13;;;20.20;70.60;;;;;;10293850;28;20061;-63
2022/08/06 11:10:08;;;;;;;1.95;1.45;;;20.20;71.00;;;;;;10285762;28;20042;-65
2022/08/06 11:15:09;;;;;;;1.95;1.40;;;20.10;71.50;;;;;;10292571;27;20098;-64
2022/08/06 11:20:32;;;;;;;2.03;1.15;;;20.00;71.50;;;;;;10274745;28;20537;-65
2022/08/06 11:25:40;;;;;;;2.72;1.08;;;20.00;71.20;;;;;;10278073;28;20541;-64
2022/08/06 11:30:51;;;;;;;;;;;20.00;71.80;;;;;;10297561;28;20427;-64
2022/08/06 11:35:52;;;;;;;1.50;1.08;;;20.10;71.70;;;;;;10297588;28;20253;-64
2022/08/06 11:41:00;;;;;;;2.00;1.23;;;20.10;72.10;;;;;;10293015;28;20064;-64
2022/08/06 11:46:21;;;;;;;2.80;1.25;;;20.20;72.30;;;;;;10284996;28;20804;-65
2022/08/06 11:51:47;;;;;;;2.65;0.90;;;20.30;72.90;;;;;;10291007;28;20048;-64
2022/08/06 12:02:06;;;;;;;1.73;1.10;;;20.60;71.80;;;;;;10291092;28;20060;-65
2022/08/06 12:07:25;;;;;;;1.45;1.20;;;20.60;72.10;;;;;;10287048;28;20021;-65
2022/08/06 12:12:29;;;;;;;1.92;0.98;;;20.70;71.60;;;;;;10281329;28;20037;-64
2022/08/06 12:17:30;;;;;;;1.83;1.00;;;20.80;72.10;;;;;;10276244;28;20087;-64
2022/08/06 12:22:33;;;;;;;2.35;1.27;;;20.90;72.00;;;;;;10283443;28;20656;-63
2022/08/06 12:27:35;;;;;;;1.48;1.13;;;20.80;71.50;;;;;;10284775;28;20436;-63
2022/08/06 12:32:36;;;;;;;1.23;1.02;;;20.90;71.80;;;;;;10293604;28;20114;-64
2022/08/06 12:37:43;;;;;;;2.65;1.35;;;21.00;70.70;;;;;;10273603;28;20126;-64
2022/08/06 12:42:44;;;;;;;1.23;1.00;;;21.10;70.80;;;;;;10285839;28;20277;-65
2022/08/06 12:47:59;;;;;;;2.33;1.15;;;21.00;71.20;;;;;;10294481;28;20407;-64
2022/08/06 12:53:09;;;;;;;2.22;1.27;;;20.60;69.90;;;;;;10305580;28;20108;-67
2022/08/06 12:58:11;;;;;;;2.63;1.40;;;20.90;71.60;;;;;;10291534;28;20362;-66
2022/08/06 13:03:13;;;;;;;2.50;1.40;;;20.70;71.10;;;;;;10317583;28;20025;-68
2022/08/06 13:08:14;;;;;;;1.73;1.10;;;20.50;71.70;;;;;;10298915;28;20321;-67
2022/08/06 13:13:15;;;;;;;2.03;1.20;;;20.70;71.60;;;;;;10301536;28;20328;-67
2022/08/06 13:18:17;;;;;;;3.17;1.40;;;21.00;70.60;;;;;;10271995;28;20448;-67
2022/08/06 13:23:31;;;;;;;6.65;1.58;;;21.30;70.20;;;;;;10286235;28;20157;-67
2022/08/06 13:28:32;;;;;;;4.00;1.38;;;21.50;70.30;;;;;;10289845;28;20306;-66
2022/08/06 13:33:33;;;;;;;1.83;1.10;;;21.70;69.20;;;;;;10297745;28;20112;-66
2022/08/06 13:38:35;;;;;;;4.03;1.27;;;21.30;69.30;;;;;;10288466;28;20037;-67
2022/08/06 13:43:43;;;;;;;2.40;1.42;;;21.30;69.10;;;;;;10299997;28;20030;-67
2022/08/06 13:48:45;;;;;;;2.22;1.40;;;21.30;68.90;;;;;;10284130;28;20370;-67
2022/08/06 13:53:46;;;;;;;3.13;1.30;;;21.60;69.70;;;;;;10295010;28;20647;-67
2022/08/06 13:58:47;;;;;;;2.47;1.30;;;22.00;69.30;;;;;;10287291;28;20567;-67
2022/08/06 14:03:48;;;;;;;3.40;1.48;;;22.30;68.00;;;;;;10301490;28;20030;-67
2022/08/06 14:08:49;;;;;;;3.70;1.58;;;22.70;69.00;;;;;;10353980;28;20136;-67
2022/08/06 14:13:49;;;;;;;6.10;1.77;;;23.00;68.00;;;;;;10298633;28;20564;-70
2022/08/06 14:18:50;;;;;;;1.75;1.25;;;23.10;67.20;;;;;;10264413;28;20041;-67
2022/08/06 14:23:51;;;;;;;3.00;1.67;;;23.30;66.40;;;;;;10273276;28;20103;-67
2022/08/06 14:28:52;;;;;;;2.35;2.15;;;23.30;66.20;;;;;;10291117;28;20113;-67
2022/08/06 14:33:52;;;;;;;2.65;1.30;;;23.40;66.00;;;;;;10291312;28;20095;-65
2022/08/06 14:38:54;;;;;;;3.10;1.83;;;23.20;66.20;;;;;;10296914;28;20730;-66
2022/08/06 14:49:14;;;;;;;2.90;1.30;;;23.10;65.10;;;;;;10299330;28;20548;-68
2022/08/06 14:54:16;;;;;;;1.70;1.30;;;22.80;65.50;;;;;;10295490;28;20148;-66
2022/08/06 14:59:16;;;;;;;2.25;1.30;;;23.10;65.70;;;;;;10301377;27;20947;-66
2022/08/06 15:04:21;;;;;;;2.05;1.45;;;23.50;65.00;;;;;;10298310;28;20179;-67
2022/08/06 15:09:23;;;;;;;3.42;1.42;;;23.60;64.30;;;;;;10296355;28;20444;-66
2022/08/06 15:14:25;;;;;;;4.75;1.73;;;23.60;64.30;;;;;;10285638;28;20021;-66
2022/08/06 15:19:25;;;;;;;3.15;1.80;;;23.50;64.00;;;;;;10292138;28;21259;-66
2022/08/06 15:24:29;;;;;;;2.75;1.67;;;23.40;64.30;;;;;;10284836;28;20040;-66
2022/08/06 15:29:30;;;;;;;2.05;1.70;;;23.50;63.80;;;;;;10291200;28;20025;-66
2022/08/06 15:34:31;;;;;;;3.78;1.60;;;23.70;63.60;;;;;;10299805;28;20029;-65
2022/08/06 15:39:33;;;;;;;2.40;1.70;;;23.80;63.10;;;;;;10286394;28;20145;-67
2022/08/06 15:44:34;;;;;;;1.90;1.38;;;23.80;63.10;;;;;;10274939;28;20033;-67
2022/08/06 15:49:37;;;;;;;2.75;1.63;;;23.40;63.50;;;;;;10285285;28;20479;-66
2022/08/06 15:54:38;;;;;;;1.85;1.70;;;23.00;63.10;;;;;;10284677;28;20021;-67
2022/08/06 15:59:39;;;;;;;2.45;1.83;;;22.60;64.00;;;;;;10283012;28;20610;-66
2022/08/06 16:04:40;;;;;;;2.08;1.67;;;22.50;64.40;;;;;;10289410;28;20025;-66
2022/08/06 16:09:44;;;;;;;2.53;1.75;;;22.70;64.40;;;;;;10295912;28;20433;-66
2022/08/06 16:14:46;;;;;;;2.38;1.80;;;22.40;63.80;;;;;;10290205;28;20938;-66
2022/08/06 16:19:47;;;;;;;3.20;1.50;;;22.10;64.20;;;;;;10275314;28;20073;-66
2022/08/06 16:24:48;;;;;;;2.38;1.80;;;21.90;64.10;;;;;;10297451;28;20022;-66
2022/08/06 16:29:49;;;;;;;5.05;1.95;;;21.80;64.70;;;;;;10285837;28;20041;-67
2022/08/06 16:34:54;;;;;;;4.22;1.80;;;21.80;64.80;;;;;;10303796;28;20315;-67
2022/08/06 16:39:56;;;;;;;2.80;2.08;;;21.70;64.80;;;;;;10293602;28;20038;-67
2022/08/06 16:44:56;;;;;;;3.28;2.03;;;21.70;65.00;;;;;;10284392;28;20810;-67
2022/08/06 16:49:58;;;;;;;2.35;1.70;;;21.60;64.50;;;;;;10296414;28;20036;-68
2022/08/06 16:54:59;;;;;;;3.40;1.75;;;21.40;64.60;;;;;;10304874;28;20469;-68
2022/08/06 17:00:00;;;;;;;2.13;1.50;;;21.40;64.20;;;;;;10300184;28;20049;-70
2022/08/06 17:05:01;;;;;;;2.53;1.75;;;21.40;64.60;;;;;;10301455;28;20468;-71
2022/08/06 17:10:03;;;;;;;3.55;1.80;;;21.30;64.60;;;;;;10301183;28;20471;-67
2022/08/06 17:15:05;;;;;;;2.33;1.60;;;21.30;64.90;;;;;;10284175;28;20500;-67
2022/08/06 17:20:06;;;;;;;3.03;1.75;;;21.30;64.90;;;;;;10288515;28;20152;-67
2022/08/06 17:25:09;;;;;;;6.28;1.85;;;21.20;64.90;;;;;;10293674;28;20145;-70
2022/08/06 17:30:12;;;;;;;2.25;1.70;;;21.10;65.50;;;;;;10298253;28;20438;-71
2022/08/06 17:35:15;;;;;;;2.80;1.60;;;21.30;65.60;;;;;;10310782;28;20021;-70
2022/08/06 17:40:25;;;;;;;4.60;1.73;;;21.60;65.50;;;;;;10339099;27;20152;-67
2022/08/06 17:45:27;;;;;;;3.65;1.70;;;21.80;65.60;;;;;;10291375;28;20033;-67
2022/08/06 17:50:27;;;;;;;2.28;1.60;;;21.90;65.70;;;;;;10341543;27;20027;-67
2022/08/06 17:55:29;;;;;;;1.95;1.48;;;22.00;65.70;;;;;;10295203;28;20338;-67
2022/08/06 18:00:31;;;;;;;3.25;1.63;;;22.00;65.90;;;;;;10297913;27;20331;-67
2022/08/06 18:05:31;;;;;;;4.97;1.83;;;22.10;66.10;;;;;;10293937;28;20044;-67
2022/08/06 18:10:32;;;;;;;1.90;1.50;;;22.10;66.30;;;;;;10289854;28;20570;-67
2022/08/06 18:15:33;;;;;;;2.03;1.70;;;22.10;66.40;;;;;;10299498;27;20395;-67
2022/08/06 18:20:34;;;;;;;2.55;1.70;;;22.10;66.60;;;;;;10301398;28;20080;-67
2022/08/06 18:25:37;;;;;;;3.50;1.90;;;22.10;66.80;;;;;;10298278;28;20136;-67
2022/08/06 18:30:38;;;;;;;2.17;1.75;;;22.10;66.90;;;;;;10286823;28;20045;-67
2022/08/06 18:35:39;;;;;;;4.10;2.28;;;22.00;67.00;;;;;;10289587;28;20029;-67
2022/08/06 18:40:40;;;;;;;2.65;1.88;;;22.00;67.20;;;;;;10293315;28;20060;-67
2022/08/06 18:45:42;;;;;;;2.50;1.80;;;22.00;67.30;;;;;;10298905;28;20022;-67
2022/08/06 18:50:43;;;;;;;3.63;1.80;;;22.00;67.50;;;;;;10295705;28;20748;-66
2022/08/06 18:55:44;;;;;;;2.55;2.00;;;22.00;67.70;;;;;;10297465;28;20017;-67
2022/08/06 19:00:45;;;;;;;2.10;1.60;;;21.90;67.70;;;;;;10288840;28;20100;-67
2022/08/06 19:05:46;;;;;;;2.72;1.90;;;21.90;67.90;;;;;;10296815;28;20297;-67
2022/08/06 19:10:47;;;;;;;2.40;1.70;;;21.90;68.10;;;;;;10297968;28;20487;-67
2022/08/06 19:15:48;;;;;;;2.25;1.73;;;21.90;68.20;;;;;;10289122;28;20526;-67
2022/08/06 19:20:49;;;;;;;3.00;1.85;;;21.80;68.40;;;;;;10292628;28;20508;-67
2022/08/06 19:25:50;;;;;;;6.13;2.30;;;21.70;68.40;;;;;;10287864;28;20029;-67
2022/08/06 19:30:51;;;;;;;3.25;2.45;;;21.50;68.40;;;;;;10284900;28;20895;-66
2022/08/06 19:35:52;;;;;;;3.28;2.55;;;21.00;69.00;;;;;;10296458;28;20812;-64
2022/08/06 19:40:53;;;;;;;7.07;2.65;;;20.60;69.70;;;;;;10292025;28;20034;-64
2022/08/06 19:45:53;;;;;;;3.40;2.40;;;20.50;70.00;;;;;;10267686;28;20112;-65
2022/08/06 19:50:54;;;;;;;2.60;1.90;;;20.70;69.90;;;;;;10331559;28;20112;-69
2022/08/06 19:55:55;;;;;;;2.83;2.28;;;20.80;69.70;;;;;;10372410;28;20030;-65
2022/08/06 20:01:07;;;;;;;3.58;2.50;;;20.90;69.60;;;;;;10392404;28;20041;-64
2022/08/06 20:06:08;;;;;;;3.90;2.45;;;21.00;69.60;;;;;;10415677;28;20038;-65
2022/08/06 20:11:10;;;;;;;3.67;2.70;;;21.00;69.60;;;;;;10374086;28;20421;-65
2022/08/06 20:16:11;;;;;;;3.38;2.40;;;21.00;69.60;;;;;;10363755;28;20490;-64
2022/08/06 20:21:11;;;;;;;3.25;2.28;;;21.10;69.70;;;;;;10369859;28;20075;-63
2022/08/06 20:26:13;;;;;;;4.30;2.75;;;21.10;69.80;;;;;;10362558;28;20018;-64
2022/08/06 20:31:13;;;;;;;3.28;2.40;;;21.10;69.90;;;;;;10390494;28;20090;-65
2022/08/06 20:36:14;;;;;;;3.95;2.65;;;21.00;69.90;;;;;;10380684;28;20781;-64
2022/08/06 20:41:15;;;;;;;3.45;2.60;;;21.00;70.00;;;;;;10390803;28;20086;-64
2022/08/06 20:46:15;;;;;;;3.78;2.67;;;21.00;70.10;;;;;;10392239;28;20036;-68
2022/08/06 20:51:16;;;;;;;3.78;2.40;;;21.00;70.20;;;;;;10380376;28;20040;-64
2022/08/06 20:56:17;;;;;;;4.63;2.83;;;21.00;70.30;;;;;;10386392;28;20033;-66
2022/08/06 21:01:18;;;;;;;4.00;2.60;;;21.00;70.40;;;;;;10377857;28;20061;-64
2022/08/06 21:06:18;;;;;;;3.10;2.45;;;20.90;70.40;;;;;;10380365;28;20021;-64
2022/08/06 21:11:19;;;;;;;4.45;2.58;;;20.90;70.50;;;;;;10389892;28;20450;-64
2022/08/06 21:16:20;;;;;;;4.03;2.72;;;20.90;70.60;;;;;;10398151;28;20019;-64
2022/08/06 21:21:20;;;;;;;4.13;2.65;;;20.80;70.70;;;;;;10394077;28;20052;-64
2022/08/06 21:26:21;;;;;;;3.35;2.38;;;20.80;70.70;;;;;;10400040;28;20029;-64
2022/08/06 21:31:22;;;;;;;3.75;2.55;;;20.80;70.80;;;;;;10373758;28;20434;-64
2022/08/06 21:36:24;;;;;;;4.57;2.50;;;20.80;70.90;;;;;;10386621;28;20049;-65
2022/08/06 21:41:26;;;;;;;4.53;2.78;;;20.70;70.90;;;;;;10422267;28;20037;-64
2022/08/06 21:46:28;;;;;;;3.13;2.60;;;20.70;71.00;;;;;;10399070;28;20053;-64
2022/08/06 21:51:29;;;;;;;3.53;2.60;;;20.70;71.00;;;;;;10385905;28;20037;-67
2022/08/06 21:56:30;;;;;;;3.58;2.50;;;20.60;71.10;;;;;;10375965;28;20018;-64
2022/08/06 22:01:31;;;;;;;3.58;2.72;;;20.60;71.20;;;;;;10398003;28;20050;-64
2022/08/06 22:06:31;;;;;;;3.97;2.80;;;20.60;71.30;;;;;;10423220;27;20033;-63
2022/08/06 22:11:32;;;;;;;3.60;2.45;;;20.60;71.40;;;;;;10388354;28;20029;-64
2022/08/06 22:16:33;;;;;;;3.33;2.55;;;20.50;71.40;;;;;;10394139;28;20026;-64
2022/08/06 22:21:34;;;;;;;3.67;2.58;;;20.50;71.50;;;;;;10394396;28;20034;-64
2022/08/06 22:26:34;;;;;;;3.42;2.60;;;20.50;71.50;;;;;;10396192;28;20022;-64
2022/08/06 22:31:36;;;;;;;3.72;2.60;;;20.50;71.60;;;;;;10396299;28;20033;-64
2022/08/06 22:36:37;;;;;;;3.85;3.00;;;20.40;71.70;;;;;;10381383;28;20478;-64
2022/08/06 22:41:38;;;;;;;4.22;2.92;;;20.40;71.70;;;;;;10385588;28;20041;-64
2022/08/06 22:46:38;;;;;;;4.68;3.03;;;20.40;71.80;;;;;;10393436;28;20029;-64
2022/08/06 22:51:39;;;;;;;3.90;2.70;;;20.40;71.80;;;;;;10383281;28;20547;-64
2022/08/06 22:56:40;;;;;;;3.72;2.65;;;20.30;71.80;;;;;;10396540;28;20082;-64
2022/08/06 23:01:40;;;;;;;5.15;2.67;;;20.30;71.90;;;;;;10372742;28;20386;-64
2022/08/06 23:06:41;;;;;;;3.17;2.40;;;20.20;71.90;;;;;;10392710;28;20609;-64
2022/08/06 23:11:42;;;;;;;3.55;2.80;;;20.20;71.90;;;;;;10389286;28;20499;-64
2022/08/06 23:16:43;;;;;;;3.40;2.55;;;20.20;72.00;;;;;;10388328;28;20070;-64
2022/08/06 23:21:43;;;;;;;5.70;2.95;;;20.20;72.00;;;;;;10382817;28;20504;-64
2022/08/06 23:26:44;;;;;;;4.15;2.90;;;20.10;72.00;;;;;;10385995;28;20446;-68
2022/08/06 23:31:45;;;;;;;3.83;2.75;;;20.10;72.00;;;;;;10389600;28;20017;-64
2022/08/06 23:36:46;;;;;;;3.22;2.50;;;20.10;72.10;;;;;;10392174;28;20041;-64
2022/08/06 23:41:47;;;;;;;4.20;2.60;;;20.00;72.10;;;;;;10393607;28;20032;-64
2022/08/06 23:46:48;;;;;;;3.10;2.30;;;20.00;72.10;;;;;;10390900;28;20160;-64
2022/08/06 23:51:49;;;;;;;4.32;2.97;;;20.00;72.10;;;;;;10390996;28;20029;-65
2022/08/06 23:56:51;;;;;;;4.15;2.78;;;20.00;72.20;;;;;;10396398;28;20016;-65
